createdAt,value
2022-09-03T00:02:12.291Z,99345.47
2022-09-03T00:04:53.371Z,99341.09
2022-09-03T00:07:42.802Z,99338.69
2022-09-03T00:10:18.062Z,99337.34
2022-09-03T00:12:47.471Z,99338.00
2022-09-03T00:15:24.417Z,99335.97
2022-09-03T00:18:09.255Z,99334.66
2022-09-03T00:20:44.211Z,99329.97
2022-09-03T00:23:19.456Z,99321.72
2022-09-03T00:26:14.050Z,99322.56
2022-09-03T00:28:54.852Z,99320.69
2022-09-03T00:31:31.987Z,99314.09
2022-09-03T00:34:04.768Z,99317.03
2022-09-03T00:36:42.183Z,99310.88
2022-09-03T00:39:17.589Z,99314.53
2022-09-03T00:42:06.835Z,99312.13
2022-09-03T00:45:16.939Z,99308.03
2022-09-03T00:47:58.658Z,99300.50
2022-09-03T00:50:52.983Z,99303.47
2022-09-03T00:53:47.893Z,99304.78
2022-09-03T00:56:36.431Z,99299.34
2022-09-03T00:59:08.148Z,99299.44
2022-09-03T01:01:40.293Z,99303.31
2022-09-03T01:04:23.387Z,99301.31
2022-09-03T01:07:25.231Z,99299.09
2022-09-03T01:10:05.806Z,99292.69
2022-09-03T01:12:55.431Z,99295.63
2022-09-03T01:15:36.054Z,99300.41
2022-09-03T01:18:17.878Z,99296.94
2022-09-03T01:21:22.059Z,99299.78
2022-09-03T01:24:18.235Z,99292.38
2022-09-03T01:27:06.186Z,99300.09
2022-09-03T01:29:39.616Z,99306.34
2022-09-03T01:32:20.307Z,99306.00
2022-09-03T01:35:08.966Z,99309.78
2022-09-03T01:37:58.495Z,99302.88
2022-09-03T01:40:31.024Z,99313.41
2022-09-03T01:43:45.578Z,99311.34
2022-09-03T01:46:23.356Z,99319.88
2022-09-03T01:49:11.516Z,99314.53
2022-09-03T01:51:38.303Z,99319.25
2022-09-03T01:54:40.351Z,99316.31
2022-09-03T01:57:35.912Z,99313.19
2022-09-03T02:00:15.527Z,99322.31
2022-09-03T02:02:44.264Z,99324.16
2022-09-03T02:05:15.750Z,99319.06
2022-09-03T02:07:46.624Z,99316.81
2022-09-03T02:10:19.936Z,99311.59
2022-09-03T02:12:53.540Z,99307.44
2022-09-03T02:15:22.703Z,99294.50
2022-09-03T02:17:54.861Z,99310.28
2022-09-03T02:20:24.097Z,99304.66
2022-09-03T02:22:51.193Z,99304.53
2022-09-03T02:25:18.224Z,99315.28
2022-09-03T02:27:46.048Z,99307.94
2022-09-03T02:30:12.599Z,99301.88
2022-09-03T02:32:39.372Z,99303.34
2022-09-03T02:35:06.900Z,99304.34
2022-09-03T02:37:33.352Z,99303.81
2022-09-03T02:40:00.004Z,99310.88
2022-09-03T02:42:27.263Z,99310.09
2022-09-03T02:45:00.754Z,99309.03
2022-09-03T02:47:32.370Z,99304.88
2022-09-03T02:49:58.873Z,99305.38
2022-09-03T02:52:25.380Z,99302.22
2022-09-03T02:54:52.039Z,99303.94
2022-09-03T02:57:20.102Z,99303.94
2022-09-03T02:59:54.097Z,99305.44
2022-09-03T03:02:20.631Z,99305.22
2022-09-03T03:04:47.218Z,99304.94
2022-09-03T03:07:13.775Z,99298.69
2022-09-03T03:09:40.291Z,99295.25
2022-09-03T03:12:07.292Z,99302.03
2022-09-03T03:14:33.809Z,99299.38
2022-09-03T03:17:00.448Z,99299.25
2022-09-03T03:19:27.176Z,99292.56
2022-09-03T03:21:54.003Z,99286.25
2022-09-03T03:24:20.503Z,99284.47
2022-09-03T03:26:46.977Z,99285.50
2022-09-03T03:29:17.863Z,99302.81
2022-09-03T03:31:44.321Z,99288.88
2022-09-03T03:34:10.950Z,99292.53
2022-09-03T03:36:37.680Z,99296.28
2022-09-03T03:39:04.414Z,99295.00
2022-09-03T03:41:33.358Z,99297.56
2022-09-03T03:44:02.604Z,99297.97
2022-09-03T03:46:32.078Z,99300.81
2022-09-03T03:48:59.794Z,99296.50
2022-09-03T03:51:26.610Z,99301.06
2022-09-03T03:53:58.617Z,99302.56
2022-09-03T03:56:27.234Z,99300.34
2022-09-03T03:58:54.797Z,99298.00
2022-09-03T04:01:24.064Z,99302.25
2022-09-03T04:03:51.265Z,99304.66
2022-09-03T04:06:19.848Z,99303.53
2022-09-03T04:08:49.647Z,99298.97
2022-09-03T04:11:19.833Z,99293.91
2022-09-03T04:13:47.387Z,99289.88
2022-09-03T04:16:25.395Z,99288.06
2022-09-03T04:18:54.254Z,99291.06
2022-09-03T04:21:23.726Z,99285.97
2022-09-03T04:23:51.547Z,99284.59
2022-09-03T04:26:20.990Z,99289.56
2022-09-03T04:28:47.697Z,99279.66
2022-09-03T04:31:16.709Z,99277.81
2022-09-03T04:33:43.558Z,99280.06
2022-09-03T04:36:19.204Z,99278.34
2022-09-03T04:38:47.937Z,99287.06
2022-09-03T04:41:16.887Z,99285.81
2022-09-03T04:43:43.594Z,99284.50
2022-09-03T04:46:17.612Z,99281.19
2022-09-03T04:48:48.822Z,99286.38
2022-09-03T04:51:17.446Z,99277.97
2022-09-03T04:53:46.597Z,99290.28
2022-09-03T04:56:14.248Z,99290.13
2022-09-03T04:58:44.416Z,99294.50
2022-09-03T05:01:12.739Z,99295.81
2022-09-03T05:03:39.314Z,99304.66
2022-09-03T05:06:06.559Z,99305.19
2022-09-03T05:08:37.261Z,99306.06
2022-09-03T05:11:05.318Z,99308.16
2022-09-03T05:13:33.605Z,99300.22
2022-09-03T05:16:06.435Z,99300.31
2022-09-03T05:18:35.645Z,99302.41
2022-09-03T05:21:12.805Z,99295.13
2022-09-03T05:23:42.641Z,99292.44
2022-09-03T05:26:12.304Z,99295.75
2022-09-03T05:28:40.584Z,99293.75
2022-09-03T05:31:08.803Z,99291.59
2022-09-03T05:33:44.119Z,99288.63
2022-09-03T05:36:16.095Z,99279.47
2022-09-03T05:38:43.523Z,99278.72
2022-09-03T05:41:12.327Z,99281.66
2022-09-03T05:43:40.395Z,99288.34
2022-09-03T05:46:09.552Z,99289.34
2022-09-03T05:48:37.752Z,99297.94
2022-09-03T05:51:07.516Z,99295.31
2022-09-03T05:53:36.923Z,99286.56
2022-09-03T05:56:06.621Z,99291.56
2022-09-03T05:58:43.479Z,99288.66
2022-09-03T06:01:11.009Z,99296.59
2022-09-03T06:03:37.611Z,99291.09
2022-09-03T06:06:05.466Z,99295.69
2022-09-03T06:08:32.400Z,99287.22
2022-09-03T06:11:00.489Z,99291.66
2022-09-03T06:13:27.245Z,99295.31
2022-09-03T06:16:02.067Z,99289.44
2022-09-03T06:18:29.357Z,99301.94
2022-09-03T06:20:57.359Z,99296.72
2022-09-03T06:23:24.706Z,99300.16
2022-09-03T06:26:09.577Z,99304.03
2022-09-03T06:28:41.234Z,99312.00
2022-09-03T06:31:09.769Z,99309.31
2022-09-03T06:33:37.785Z,99306.44
2022-09-03T06:36:08.964Z,99315.38
2022-09-03T06:38:37.317Z,99315.03
2022-09-03T06:41:12.426Z,99318.56
2022-09-03T06:43:41.850Z,99314.84
2022-09-03T06:46:09.896Z,99320.59
2022-09-03T06:48:38.912Z,99316.34
2022-09-03T06:51:08.358Z,99313.81
2022-09-03T06:53:37.148Z,99305.69
2022-09-03T06:56:15.702Z,99309.72
2022-09-03T06:58:45.326Z,99306.31
2022-09-03T07:01:14.963Z,99302.53
2022-09-03T07:03:43.758Z,99307.09
2022-09-03T07:06:14.471Z,99305.34
2022-09-03T07:08:42.582Z,99302.34
2022-09-03T07:11:14.747Z,99295.34
2022-09-03T07:13:44.236Z,99299.25
2022-09-03T07:16:17.294Z,99302.91
2022-09-03T07:18:44.712Z,99298.28
2022-09-03T07:21:13.769Z,99293.31
2022-09-03T07:23:42.150Z,99295.56
2022-09-03T07:26:12.806Z,99293.72
2022-09-03T07:28:40.333Z,99287.19
2022-09-03T07:31:12.631Z,99289.34
2022-09-03T07:33:39.627Z,99290.38
2022-09-03T07:36:11.458Z,99281.31
2022-09-03T07:38:38.200Z,99278.53
2022-09-03T07:41:08.701Z,99279.88
2022-09-03T07:43:41.143Z,99278.53
2022-09-03T07:46:08.880Z,99274.22
2022-09-03T07:48:37.621Z,99273.19
2022-09-03T07:51:04.723Z,99262.81
2022-09-03T07:53:32.377Z,99265.97
2022-09-03T07:56:11.526Z,99273.09
2022-09-03T07:58:41.338Z,99274.50
2022-09-03T08:01:13.504Z,99274.72
2022-09-03T08:03:45.365Z,99271.06
2022-09-03T08:06:12.932Z,99278.69
2022-09-03T08:08:40.336Z,99282.75
2022-09-03T08:11:12.370Z,99280.31
2022-09-03T08:13:40.937Z,99272.97
2022-09-03T08:16:09.526Z,99276.31
2022-09-03T08:18:40.086Z,99276.53
2022-09-03T08:21:07.691Z,99276.50
2022-09-03T08:23:38.847Z,99271.19
2022-09-03T08:26:06.286Z,99272.91
2022-09-03T08:28:39.317Z,99266.41
2022-09-03T08:31:12.179Z,99280.38
2022-09-03T08:33:44.641Z,99282.31
2022-09-03T08:36:25.957Z,99270.53
2022-09-03T08:38:55.373Z,99266.50
2022-09-03T08:41:31.790Z,99276.19
2022-09-03T08:44:19.912Z,99269.84
2022-09-03T08:47:01.630Z,99271.41
2022-09-03T08:49:34.515Z,99261.28
2022-09-03T08:52:06.849Z,99274.09
2022-09-03T08:54:33.587Z,99269.09
2022-09-03T08:57:02.830Z,99257.63
2022-09-03T08:59:33.039Z,99263.72
2022-09-03T09:02:12.145Z,99262.63
2022-09-03T09:05:20.425Z,99258.81
2022-09-03T09:07:53.471Z,99251.06
2022-09-03T09:10:44.624Z,99251.72
2022-09-03T09:13:16.329Z,99241.63
2022-09-03T09:15:55.095Z,99241.41
2022-09-03T09:18:46.674Z,99241.63
2022-09-03T09:21:27.565Z,99242.50
2022-09-03T09:24:12.187Z,99245.84
2022-09-03T09:26:41.820Z,99249.25
2022-09-03T09:29:10.848Z,99236.06
2022-09-03T09:31:44.699Z,99229.06
2022-09-03T09:34:11.826Z,99232.84
2022-09-03T09:36:50.721Z,99238.19
2022-09-03T09:39:17.802Z,99238.19
2022-09-03T09:41:58.984Z,99229.31
2022-09-03T09:44:26.606Z,99231.69
2022-09-03T09:47:04.866Z,99229.56
2022-09-03T09:49:35.636Z,99227.31
2022-09-03T09:52:06.724Z,99227.13
2022-09-03T09:54:33.420Z,99232.91
2022-09-03T09:57:06.230Z,99222.25
2022-09-03T09:59:34.925Z,99220.56
2022-09-03T10:02:18.212Z,99226.19
2022-09-03T10:04:49.862Z,99218.59
2022-09-03T10:07:25.477Z,99221.34
2022-09-03T10:10:21.410Z,99215.81
2022-09-03T10:13:10.033Z,99211.66
2022-09-03T10:16:08.734Z,99214.78
2022-09-03T10:19:04.674Z,99217.41
2022-09-03T10:21:41.831Z,99212.84
2022-09-03T10:24:17.261Z,99212.78
2022-09-03T10:26:47.213Z,99205.53
2022-09-03T10:29:20.201Z,99203.63
2022-09-03T10:32:12.569Z,99196.66
2022-09-03T10:35:00.209Z,99204.19
2022-09-03T10:38:02.103Z,99202.25
2022-09-03T10:40:48.555Z,99197.81
2022-09-03T10:43:41.860Z,99205.34
2022-09-03T10:46:18.378Z,99201.41
2022-09-03T10:48:56.309Z,99199.84
2022-09-03T10:51:57.177Z,99209.84
2022-09-03T10:54:44.560Z,99186.84
2022-09-03T10:57:23.714Z,99177.16
2022-09-03T10:59:59.319Z,99181.94
2022-09-03T11:02:38.115Z,99180.63
2022-09-03T11:05:15.829Z,99172.16
2022-09-03T11:07:52.000Z,99168.75
2022-09-03T11:10:31.041Z,99179.72
2022-09-03T11:12:57.744Z,99180.44
2022-09-03T11:15:28.521Z,99182.22
2022-09-03T11:18:03.584Z,99173.78
2022-09-03T11:20:32.148Z,99169.91
2022-09-03T11:23:03.060Z,99174.81
2022-09-03T11:25:37.037Z,99175.09
2022-09-03T11:28:42.250Z,99166.72
2022-09-03T11:31:33.942Z,99157.53
2022-09-03T11:34:17.851Z,99162.69
2022-09-03T11:36:50.639Z,99150.72
2022-09-03T11:39:36.665Z,99163.66
2022-09-03T11:42:09.632Z,99160.63
2022-09-03T11:44:37.953Z,99144.09
2022-09-03T11:47:24.156Z,99160.91
2022-09-03T11:49:53.632Z,99158.00
2022-09-03T11:52:28.352Z,99164.88
2022-09-03T11:54:55.581Z,99157.91
2022-09-03T11:57:33.529Z,99147.22
2022-09-03T12:00:14.624Z,99153.94
2022-09-03T12:02:48.757Z,99152.03
2022-09-03T12:05:33.194Z,99153.69
2022-09-03T12:08:14.925Z,99144.91
2022-09-03T12:10:53.342Z,99155.06
2022-09-03T12:13:43.395Z,99145.56
2022-09-03T12:16:45.987Z,99137.16
2022-09-03T12:19:51.889Z,99137.03
2022-09-03T12:22:20.184Z,99145.25
2022-09-03T12:24:48.206Z,99137.41
2022-09-03T12:27:26.895Z,99136.50
2022-09-03T12:30:00.210Z,99142.63
2022-09-03T12:32:32.508Z,99137.03
2022-09-03T12:35:09.966Z,99151.09
2022-09-03T12:40:27.698Z,99144.19
2022-09-03T12:46:13.970Z,99135.53
2022-09-03T12:51:51.950Z,99118.78
2022-09-03T12:54:20.382Z,99132.44
2022-09-03T12:56:53.875Z,99128.38
2022-09-03T12:59:23.070Z,99133.75
2022-09-03T13:01:56.917Z,99125.97
2022-09-03T13:04:32.504Z,99123.97
2022-09-03T13:07:11.823Z,99129.72
2022-09-03T13:09:41.622Z,99126.56
2022-09-03T13:12:21.366Z,99131.53
2022-09-03T13:14:48.632Z,99130.88
2022-09-03T13:17:52.197Z,99129.16
2022-09-03T13:20:40.168Z,99121.16
2022-09-03T13:23:25.822Z,99123.34
2022-09-03T13:26:05.948Z,99122.50
2022-09-03T13:28:53.005Z,99121.22
2022-09-03T13:31:53.229Z,99111.84
2022-09-03T13:34:31.955Z,99109.16
2022-09-03T13:37:13.491Z,99100.06
2022-09-03T13:39:47.677Z,99102.25
2022-09-03T13:42:24.243Z,99107.88
2022-09-03T13:45:06.260Z,99104.91
2022-09-03T13:48:30.610Z,99110.06
2022-09-03T13:51:23.895Z,99104.91
2022-09-03T13:54:05.033Z,99101.00
2022-09-03T13:56:45.271Z,99102.31
2022-09-03T13:59:29.169Z,99100.66
2022-09-03T14:02:04.800Z,99091.13
2022-09-03T14:04:49.181Z,99101.19
2022-09-03T14:07:46.255Z,99092.00
2022-09-03T14:10:39.915Z,99091.81
2022-09-03T14:13:16.371Z,99090.22
2022-09-03T14:16:15.708Z,99093.19
2022-09-03T14:18:56.680Z,99096.06
2022-09-03T14:21:29.502Z,99091.25
2022-09-03T14:24:30.481Z,99093.06
2022-09-03T14:27:02.387Z,99087.75
2022-09-03T14:29:31.638Z,99082.94
2022-09-03T14:32:16.447Z,99088.72
2022-09-03T14:35:04.616Z,99080.78
2022-09-03T14:37:46.339Z,99092.25
2022-09-03T14:40:22.717Z,99088.66
2022-09-03T14:43:13.748Z,99098.00
2022-09-03T14:45:40.271Z,99092.16
2022-09-03T14:48:25.077Z,99080.94
2022-09-03T14:50:58.242Z,99084.50
2022-09-03T14:53:56.858Z,99082.84
2022-09-03T14:56:31.647Z,99083.31
2022-09-03T14:59:28.945Z,99082.72
2022-09-03T15:02:20.046Z,99080.59
2022-09-03T15:05:12.075Z,99083.94
2022-09-03T15:08:08.162Z,99083.31
2022-09-03T15:11:01.273Z,99080.13
2022-09-03T15:13:34.261Z,99089.06
2022-09-03T15:16:34.628Z,99082.25
2022-09-03T15:19:13.544Z,99087.88
2022-09-03T15:21:42.752Z,99079.63
2022-09-03T15:24:49.384Z,99077.25
2022-09-03T15:27:31.928Z,99082.13
2022-09-03T15:30:21.578Z,99077.94
2022-09-03T15:32:48.172Z,99086.28
2022-09-03T15:35:38.880Z,99086.06
2022-09-03T15:38:30.405Z,99089.66
2022-09-03T15:41:01.976Z,99077.44
2022-09-03T15:43:33.742Z,99071.47
2022-09-03T15:46:10.745Z,99082.06
2022-09-03T15:49:05.240Z,99084.56
2022-09-03T15:51:43.267Z,99089.59
2022-09-03T15:54:25.215Z,99094.59
2022-09-03T15:57:18.241Z,99087.59
2022-09-03T16:00:22.195Z,99095.28
2022-09-03T16:03:07.609Z,99091.16
2022-09-03T16:05:57.181Z,99096.88
2022-09-03T16:08:51.448Z,99091.84
2022-09-03T16:11:27.379Z,99093.44
2022-09-03T16:14:34.770Z,99097.25
2022-09-03T16:17:04.280Z,99096.56
2022-09-03T16:19:41.878Z,99092.84
2022-09-03T16:22:26.155Z,99094.59
2022-09-03T16:25:07.291Z,99096.25
2022-09-03T16:27:40.334Z,99091.94
2022-09-03T16:30:22.740Z,99093.13
2022-09-03T16:33:13.922Z,99085.91
2022-09-03T16:35:52.707Z,99088.78
2022-09-03T16:38:44.759Z,99086.88
2022-09-03T16:41:23.693Z,99089.53
2022-09-03T16:44:16.909Z,99094.28
2022-09-03T16:47:04.833Z,99098.38
2022-09-03T16:50:10.712Z,99095.25
2022-09-03T16:52:43.188Z,99102.13
2022-09-03T16:55:25.310Z,99096.31
2022-09-03T16:58:11.585Z,99086.53
2022-09-03T17:01:16.327Z,99091.38
2022-09-03T17:03:46.665Z,99087.44
2022-09-03T17:06:21.214Z,99093.88
2022-09-03T17:09:16.695Z,99087.22
2022-09-03T17:11:56.673Z,99089.97
2022-09-03T17:15:01.819Z,99093.00
2022-09-03T17:17:57.475Z,99092.94
2022-09-03T17:20:50.283Z,99092.53
2022-09-03T17:23:26.394Z,99102.22
2022-09-03T17:26:29.655Z,99088.78
2022-09-03T17:29:26.560Z,99094.63
2022-09-03T17:32:48.681Z,99095.06
2022-09-03T17:35:25.429Z,99091.03
2022-09-03T17:38:25.712Z,99096.00
2022-09-03T17:40:55.888Z,99102.50
2022-09-03T17:43:38.986Z,99098.94
2022-09-03T17:46:20.443Z,99107.47
2022-09-03T17:48:53.527Z,99113.69
2022-09-03T17:51:39.346Z,99104.72
2022-09-03T17:54:28.565Z,99122.88
2022-09-03T17:57:13.253Z,99116.59
2022-09-03T18:00:02.733Z,99122.44
2022-09-03T18:02:37.253Z,99118.88
2022-09-03T18:05:27.569Z,99128.03
2022-09-03T18:08:12.806Z,99129.66
2022-09-03T18:11:01.118Z,99127.69
2022-09-03T18:14:09.238Z,99131.41
2022-09-03T18:16:46.017Z,99124.28
2022-09-03T18:20:08.916Z,99139.84
2022-09-03T18:23:11.151Z,99138.34
2022-09-03T18:25:59.663Z,99147.44
2022-09-03T18:29:10.002Z,99149.28
2022-09-03T18:31:55.530Z,99163.50
2022-09-03T18:34:49.132Z,99156.56
2022-09-03T18:37:39.061Z,99159.69
2022-09-03T18:40:27.002Z,99161.19
2022-09-03T18:43:42.748Z,99155.47
2022-09-03T18:48:01.239Z,99161.56
2022-09-03T18:50:12.717Z,99157.00
2022-09-03T18:53:18.342Z,99162.00
2022-09-03T18:56:13.125Z,99162.56
2022-09-03T18:59:08.816Z,99156.81
2022-09-03T19:01:59.853Z,99164.56
2022-09-03T19:05:31.352Z,99164.44
2022-09-03T19:08:43.667Z,99163.63
2022-09-03T19:11:52.240Z,99164.19
2022-09-03T19:14:58.455Z,99162.84
2022-09-03T19:17:54.011Z,99165.56
2022-09-03T19:20:50.722Z,99165.09
2022-09-03T19:23:35.891Z,99158.88
2022-09-03T19:26:58.948Z,99161.22
2022-09-03T19:29:55.427Z,99165.56
2022-09-03T19:32:54.865Z,99165.09
2022-09-03T19:35:49.256Z,99167.22
2022-09-03T19:39:04.348Z,99165.59
2022-09-03T19:42:03.944Z,99163.28
2022-09-03T19:45:17.557Z,99169.56
2022-09-03T19:48:33.442Z,99171.25
2022-09-03T19:51:54.344Z,99172.13
2022-09-03T19:54:42.776Z,99170.94
2022-09-03T19:57:32.052Z,99171.34
2022-09-03T20:00:17.892Z,99171.44
2022-09-03T20:03:20.533Z,99172.53
2022-09-03T20:06:10.234Z,99178.28
2022-09-03T20:08:58.338Z,99181.06
2022-09-03T20:11:28.207Z,99183.97
2022-09-03T20:14:15.744Z,99181.59
2022-09-03T20:16:48.479Z,99183.88
2022-09-03T20:19:43.110Z,99186.38
2022-09-03T20:22:12.594Z,99189.41
2022-09-03T20:24:55.917Z,99191.09
2022-09-03T20:28:06.875Z,99192.34
2022-09-03T20:30:47.952Z,99200.13
2022-09-03T20:33:42.023Z,99203.09
2022-09-03T20:36:14.845Z,99206.06
2022-09-03T20:39:11.134Z,99212.88
2022-09-03T20:41:58.189Z,99209.47
2022-09-03T20:44:36.849Z,99205.38
2022-09-03T20:47:23.552Z,99206.50
2022-09-03T20:50:40.133Z,99208.53
2022-09-03T20:53:33.146Z,99212.28
2022-09-03T20:56:10.662Z,99208.34
2022-09-03T20:59:04.143Z,99214.88
2022-09-03T21:01:53.972Z,99212.19
2022-09-03T21:04:38.689Z,99206.06
2022-09-03T21:07:43.205Z,99206.34
2022-09-03T21:10:26.905Z,99208.94
2022-09-03T21:13:02.057Z,99206.59
2022-09-03T21:15:38.341Z,99207.84
2022-09-03T21:18:38.606Z,99220.84
2022-09-03T21:21:23.786Z,99211.66
2022-09-03T21:24:05.018Z,99208.97
2022-09-03T21:26:39.827Z,99213.34
2022-09-03T21:29:30.676Z,99212.19
2022-09-03T21:32:05.902Z,99217.97
2022-09-03T21:34:43.707Z,99225.28
2022-09-03T21:37:13.938Z,99223.53
2022-09-03T21:39:55.875Z,99227.19
2022-09-03T21:42:42.316Z,99236.16
2022-09-03T21:45:15.157Z,99236.78
2022-09-03T21:47:48.045Z,99239.97
2022-09-03T21:50:18.536Z,99237.47
2022-09-03T21:52:45.054Z,99243.44
2022-09-03T21:55:20.770Z,99238.22
2022-09-03T21:58:19.794Z,99236.81
2022-09-03T22:00:46.720Z,99234.94
2022-09-03T22:03:13.877Z,99236.25
2022-09-03T22:05:57.217Z,99238.31
2022-09-03T22:08:34.957Z,99240.22
2022-09-03T22:11:25.867Z,99238.72
2022-09-03T22:14:02.840Z,99237.69
2022-09-03T22:16:41.501Z,99240.41
2022-09-03T22:19:09.033Z,99246.28
2022-09-03T22:21:44.404Z,99241.59
2022-09-03T22:24:42.599Z,99238.19
2022-09-03T22:27:32.886Z,99235.38
2022-09-03T22:30:07.127Z,99244.63
2022-09-03T22:32:45.613Z,99245.66
2022-09-03T22:35:17.762Z,99245.44
2022-09-03T22:37:59.723Z,99239.22
2022-09-03T22:40:33.673Z,99243.00
2022-09-03T22:43:10.028Z,99253.41
2022-09-03T22:45:54.384Z,99250.38
2022-09-03T22:48:54.819Z,99244.75
2022-09-03T22:51:21.992Z,99240.59
2022-09-03T22:54:13.338Z,99243.22
2022-09-03T22:56:41.359Z,99245.88
2022-09-03T22:59:15.268Z,99252.13
2022-09-03T23:01:44.711Z,99257.34
2022-09-03T23:04:21.356Z,99243.34
2022-09-03T23:06:59.669Z,99247.94
2022-09-03T23:09:34.748Z,99246.75
2022-09-03T23:12:07.116Z,99252.31
2022-09-03T23:14:41.376Z,99252.56
2022-09-03T23:17:15.083Z,99252.25
2022-09-03T23:19:48.869Z,99250.84
2022-09-03T23:22:59.422Z,99251.22
2022-09-03T23:25:33.867Z,99247.84
2022-09-03T23:28:06.630Z,99251.56
2022-09-03T23:30:33.094Z,99242.28
2022-09-03T23:33:00.202Z,99245.50
2022-09-03T23:35:35.057Z,99244.84
2022-09-03T23:38:24.201Z,99245.69
2022-09-03T23:40:54.859Z,99245.25
2022-09-03T23:43:37.388Z,99248.63
2022-09-03T23:46:36.292Z,99253.66
2022-09-03T23:49:25.434Z,99251.63
2022-09-03T23:51:57.694Z,99254.81
2022-09-03T23:54:45.182Z,99249.09
2022-09-03T23:57:24.821Z,99254.81
